Pilot Vessel Akarana — ZMT2938 — position and weather

sailwx.info

Track history (hours):
 
Tides and Currents Weather Stations Pressure Air Temp Water Temp Dewpoint Dewpoint Depression Visibility Wind Speed Wind Dir Waves Ship Positions

Pilot Vessel Akarana

Last reported at 2016-Jul-24 08:18 UTC. Time now 2016-Jul-24 08:52 UTC.
Position S 36°46' E 174°50'.

Length 15 m; draft 1.6 m.

Type: Pilot. MMSI: 512000344.

Date/timePositionNaut miles runAvg speedWind from/ knotsBaromVisibWave heightAir tempDewpointWater temp
2016-Jul-24 08:18S 36°46' E 174°50'3 0.1
2016-Jul-23 02:28S 36°43' E 174°51'8 1.3
2016-Jul-22 20:32S 36°50' E 174°47'3 2.0
2016-Jul-22 19:05S 36°48' E 174°49'3 3.2
2016-Jul-22 18:05S 36°45' E 174°50'3 5.6
2016-Jul-22 17:33S 36°48' E 174°49'0 0.1
2016-Jul-22 09:17S 36°48' E 174°49'0 0.2
2016-Jul-22 08:33S 36°48' E 174°49'1 0.3
2016-Jul-22 06:33S 36°48' E 174°49'  
2016-Jul-20 00:25S 36°48' E 174°49'0 0.1
2016-Jul-19 19:25S 36°48' E 174°49'0 0.0
2016-Jul-18 09:13S 36°48' E 174°49'1 0.4
2016-Jul-18 06:11S 36°47' E 174°48'2 0.3
2016-Jul-18 00:21S 36°46' E 174°49'0 0.2
2016-Jul-17 23:08S 36°46' E 174°50'  
2016-Jul-15 14:25S 36°48' E 174°49'3 3.3
2016-Jul-15 13:33S 36°45' E 174°49'5 2.7
2016-Jul-15 11:32S 36°51' E 174°47'  
Track history (hours):
 
Tides and Currents Weather Stations Pressure Air Temp Water Temp Dewpoint Dewpoint Depression Visibility Wind Speed Wind Dir Waves Ship Positions

Pilot Vessel Akarana

Last reported at 2016-Jul-24 08:18 UTC. Time now 2016-Jul-24 08:52 UTC.
Position S 36°46' E 174°50'.

Length 15 m; draft 1.6 m.

Type: Pilot. MMSI: 512000344.

Date/timePositionNaut miles runAvg speedWind from/ knotsBaromVisibWave heightAir tempDewpointWater temp
2016-Jul-24 08:18S 36°46' E 174°50'3 0.1
2016-Jul-23 02:28S 36°43' E 174°51'8 1.3
2016-Jul-22 20:32S 36°50' E 174°47'3 2.0
2016-Jul-22 19:05S 36°48' E 174°49'3 3.2
2016-Jul-22 18:05S 36°45' E 174°50'3 5.6
2016-Jul-22 17:33S 36°48' E 174°49'0 0.1
2016-Jul-22 09:17S 36°48' E 174°49'0 0.2
2016-Jul-22 08:33S 36°48' E 174°49'1 0.3
2016-Jul-22 06:33S 36°48' E 174°49'  
2016-Jul-20 00:25S 36°48' E 174°49'0 0.1
2016-Jul-19 19:25S 36°48' E 174°49'0 0.0
2016-Jul-18 09:13S 36°48' E 174°49'1 0.4
2016-Jul-18 06:11S 36°47' E 174°48'2 0.3
2016-Jul-18 00:21S 36°46' E 174°49'0 0.2
2016-Jul-17 23:08S 36°46' E 174°50'  
2016-Jul-15 14:25S 36°48' E 174°49'3 3.3
2016-Jul-15 13:33S 36°45' E 174°49'5 2.7
2016-Jul-15 11:32S 36°51' E 174°47'  

Dump ship's entire track history